sensor_id;sensor_type;location;lat;lon;timestamp;P1;durP1;ratioP1;P2;durP2;ratioP2
13927;SDS011;7036;50.834;4.718;2023-07-08T00:01:38;4.50;;;3.90;;
13927;SDS011;7036;50.834;4.718;2023-07-08T00:04:05;4.47;;;3.67;;
13927;SDS011;7036;50.834;4.718;2023-07-08T00:06:32;5.67;;;3.73;;
13927;SDS011;7036;50.834;4.718;2023-07-08T00:08:59;4.87;;;4.20;;
13927;SDS011;7036;50.834;4.718;2023-07-08T00:11:26;3.67;;;3.37;;
13927;SDS011;7036;50.834;4.718;2023-07-08T00:13:53;4.37;;;3.83;;
13927;SDS011;7036;50.834;4.718;2023-07-08T00:16:20;4.47;;;3.47;;
13927;SDS011;7036;50.834;4.718;2023-07-08T00:18:47;4.57;;;3.60;;
13927;SDS011;7036;50.834;4.718;2023-07-08T00:21:14;4.20;;;3.23;;
13927;SDS011;7036;50.834;4.718;2023-07-08T00:23:44;5.10;;;3.70;;
13927;SDS011;7036;50.834;4.718;2023-07-08T00:26:11;5.10;;;3.77;;
13927;SDS011;7036;50.834;4.718;2023-07-08T00:28:37;3.73;;;2.93;;
13927;SDS011;7036;50.834;4.718;2023-07-08T00:31:07;4.30;;;3.90;;
13927;SDS011;7036;50.834;4.718;2023-07-08T00:33:31;4.10;;;3.70;;
13927;SDS011;7036;50.834;4.718;2023-07-08T00:35:57;3.60;;;3.30;;
13927;SDS011;7036;50.834;4.718;2023-07-08T00:38:25;3.27;;;2.97;;
13927;SDS011;7036;50.834;4.718;2023-07-08T00:41:09;3.53;;;3.20;;
13927;SDS011;7036;50.834;4.718;2023-07-08T00:43:40;3.47;;;3.17;;
13927;SDS011;7036;50.834;4.718;2023-07-08T00:48:55;4.07;;;3.20;;
13927;SDS011;7036;50.834;4.718;2023-07-08T00:51:23;3.70;;;3.30;;
13927;SDS011;7036;50.834;4.718;2023-07-08T00:53:49;5.13;;;3.33;;
13927;SDS011;7036;50.834;4.718;2023-07-08T00:56:26;4.37;;;3.67;;
13927;SDS011;7036;50.834;4.718;2023-07-08T00:59:01;3.47;;;3.17;;
13927;SDS011;7036;50.834;4.718;2023-07-08T01:01:27;5.13;;;3.17;;
13927;SDS011;7036;50.834;4.718;2023-07-08T01:03:58;3.47;;;2.90;;
13927;SDS011;7036;50.834;4.718;2023-07-08T01:06:23;4.83;;;3.47;;
13927;SDS011;7036;50.834;4.718;2023-07-08T01:08:50;3.30;;;3.00;;
13927;SDS011;7036;50.834;4.718;2023-07-08T01:11:17;3.90;;;3.00;;
13927;SDS011;7036;50.834;4.718;2023-07-08T01:13:44;3.83;;;3.20;;
13927;SDS011;7036;50.834;4.718;2023-07-08T01:16:11;4.30;;;3.27;;
13927;SDS011;7036;50.834;4.718;2023-07-08T01:18:38;3.27;;;2.60;;
13927;SDS011;7036;50.834;4.718;2023-07-08T01:21:05;3.60;;;3.23;;
13927;SDS011;7036;50.834;4.718;2023-07-08T01:23:32;3.87;;;3.23;;
13927;SDS011;7036;50.834;4.718;2023-07-08T01:25:59;3.80;;;3.40;;
13927;SDS011;7036;50.834;4.718;2023-07-08T01:28:26;2.93;;;2.63;;
13927;SDS011;7036;50.834;4.718;2023-07-08T01:30:52;4.40;;;3.50;;
13927;SDS011;7036;50.834;4.718;2023-07-08T01:33:20;4.50;;;3.60;;
13927;SDS011;7036;50.834;4.718;2023-07-08T01:35:46;3.93;;;3.40;;
13927;SDS011;7036;50.834;4.718;2023-07-08T01:38:14;3.53;;;3.23;;
13927;SDS011;7036;50.834;4.718;2023-07-08T01:40:48;3.80;;;3.40;;
13927;SDS011;7036;50.834;4.718;2023-07-08T01:43:08;3.13;;;2.80;;
13927;SDS011;7036;50.834;4.718;2023-07-08T01:45:36;3.30;;;3.00;;
13927;SDS011;7036;50.834;4.718;2023-07-08T01:48:02;3.90;;;3.40;;
13927;SDS011;7036;50.834;4.718;2023-07-08T01:50:28;4.13;;;3.40;;
13927;SDS011;7036;50.834;4.718;2023-07-08T01:52:55;3.93;;;3.27;;
13927;SDS011;7036;50.834;4.718;2023-07-08T01:55:22;3.10;;;2.80;;
13927;SDS011;7036;50.834;4.718;2023-07-08T01:57:50;2.97;;;2.70;;
13927;SDS011;7036;50.834;4.718;2023-07-08T02:00:16;3.00;;;2.70;;
13927;SDS011;7036;50.834;4.718;2023-07-08T02:02:42;3.47;;;3.17;;
13927;SDS011;7036;50.834;4.718;2023-07-08T02:05:09;5.23;;;3.20;;
13927;SDS011;7036;50.834;4.718;2023-07-08T02:07:36;3.60;;;3.03;;
13927;SDS011;7036;50.834;4.718;2023-07-08T02:10:04;3.03;;;2.70;;
13927;SDS011;7036;50.834;4.718;2023-07-08T02:12:30;2.93;;;2.73;;
13927;SDS011;7036;50.834;4.718;2023-07-08T02:14:59;3.77;;;3.00;;
13927;SDS011;7036;50.834;4.718;2023-07-08T02:17:27;3.00;;;2.70;;
13927;SDS011;7036;50.834;4.718;2023-07-08T02:19:56;4.57;;;3.10;;
13927;SDS011;7036;50.834;4.718;2023-07-08T02:22:23;5.13;;;3.47;;
13927;SDS011;7036;50.834;4.718;2023-07-08T02:24:51;4.93;;;3.03;;
13927;SDS011;7036;50.834;4.718;2023-07-08T02:27:17;4.03;;;3.13;;
13927;SDS011;7036;50.834;4.718;2023-07-08T02:29:44;3.77;;;3.23;;
13927;SDS011;7036;50.834;4.718;2023-07-08T02:32:11;3.87;;;3.50;;
13927;SDS011;7036;50.834;4.718;2023-07-08T02:34:38;3.37;;;3.07;;
13927;SDS011;7036;50.834;4.718;2023-07-08T02:37:05;3.63;;;3.33;;
13927;SDS011;7036;50.834;4.718;2023-07-08T02:39:32;3.10;;;2.70;;
13927;SDS011;7036;50.834;4.718;2023-07-08T02:41:59;3.90;;;3.50;;
13927;SDS011;7036;50.834;4.718;2023-07-08T02:44:26;3.63;;;3.30;;
13927;SDS011;7036;50.834;4.718;2023-07-08T02:46:53;3.70;;;3.20;;
13927;SDS011;7036;50.834;4.718;2023-07-08T02:49:20;3.33;;;3.03;;
13927;SDS011;7036;50.834;4.718;2023-07-08T02:51:47;2.90;;;2.63;;
13927;SDS011;7036;50.834;4.718;2023-07-08T02:54:14;3.77;;;3.37;;
13927;SDS011;7036;50.834;4.718;2023-07-08T02:56:41;3.50;;;2.97;;
13927;SDS011;7036;50.834;4.718;2023-07-08T02:59:08;3.33;;;3.03;;
13927;SDS011;7036;50.834;4.718;2023-07-08T03:01:34;3.60;;;3.23;;
13927;SDS011;7036;50.834;4.718;2023-07-08T03:04:01;4.37;;;3.33;;
13927;SDS011;7036;50.834;4.718;2023-07-08T03:06:28;2.90;;;2.50;;
13927;SDS011;7036;50.834;4.718;2023-07-08T03:08:56;3.20;;;2.80;;
13927;SDS011;7036;50.834;4.718;2023-07-08T03:11:23;3.50;;;3.10;;
13927;SDS011;7036;50.834;4.718;2023-07-08T03:13:50;3.83;;;3.23;;
13927;SDS011;7036;50.834;4.718;2023-07-08T03:16:17;3.30;;;2.97;;
13927;SDS011;7036;50.834;4.718;2023-07-08T03:18:44;3.10;;;2.67;;
13927;SDS011;7036;50.834;4.718;2023-07-08T03:21:14;3.57;;;3.27;;
13927;SDS011;7036;50.834;4.718;2023-07-08T03:23:40;3.80;;;2.70;;
13927;SDS011;7036;50.834;4.718;2023-07-08T03:26:07;3.70;;;3.20;;
13927;SDS011;7036;50.834;4.718;2023-07-08T03:28:34;4.37;;;2.97;;
13927;SDS011;7036;50.834;4.718;2023-07-08T03:31:01;5.53;;;3.53;;
13927;SDS011;7036;50.834;4.718;2023-07-08T03:33:28;3.80;;;3.13;;
13927;SDS011;7036;50.834;4.718;2023-07-08T03:35:55;4.60;;;3.50;;
13927;SDS011;7036;50.834;4.718;2023-07-08T03:38:21;3.77;;;3.37;;
13927;SDS011;7036;50.834;4.718;2023-07-08T03:40:48;3.20;;;2.90;;
13927;SDS011;7036;50.834;4.718;2023-07-08T03:43:15;3.20;;;2.90;;
13927;SDS011;7036;50.834;4.718;2023-07-08T03:45:42;3.03;;;2.73;;
13927;SDS011;7036;50.834;4.718;2023-07-08T03:48:12;3.13;;;2.83;;
13927;SDS011;7036;50.834;4.718;2023-07-08T03:50:39;2.97;;;2.67;;
13927;SDS011;7036;50.834;4.718;2023-07-08T03:53:08;3.37;;;3.03;;
13927;SDS011;7036;50.834;4.718;2023-07-08T03:55:33;2.77;;;2.57;;
13927;SDS011;7036;50.834;4.718;2023-07-08T03:58:00;3.13;;;2.47;;
13927;SDS011;7036;50.834;4.718;2023-07-08T04:00:27;3.83;;;3.43;;
13927;SDS011;7036;50.834;4.718;2023-07-08T04:02:54;3.20;;;2.90;;
13927;SDS011;7036;50.834;4.718;2023-07-08T04:05:22;4.50;;;2.90;;
13927;SDS011;7036;50.834;4.718;2023-07-08T04:07:48;4.27;;;2.93;;
13927;SDS011;7036;50.834;4.718;2023-07-08T04:10:15;4.23;;;3.03;;
13927;SDS011;7036;50.834;4.718;2023-07-08T04:12:42;3.13;;;2.80;;
13927;SDS011;7036;50.834;4.718;2023-07-08T04:15:09;3.10;;;2.80;;
13927;SDS011;7036;50.834;4.718;2023-07-08T04:17:37;3.33;;;3.03;;
13927;SDS011;7036;50.834;4.718;2023-07-08T04:20:09;4.27;;;3.10;;
13927;SDS011;7036;50.834;4.718;2023-07-08T04:22:36;3.27;;;2.97;;
13927;SDS011;7036;50.834;4.718;2023-07-08T04:25:02;3.13;;;2.83;;
13927;SDS011;7036;50.834;4.718;2023-07-08T04:27:29;4.40;;;2.90;;
13927;SDS011;7036;50.834;4.718;2023-07-08T04:29:56;4.57;;;3.00;;
13927;SDS011;7036;50.834;4.718;2023-07-08T04:32:23;3.47;;;2.90;;
13927;SDS011;7036;50.834;4.718;2023-07-08T04:34:53;3.63;;;3.10;;
13927;SDS011;7036;50.834;4.718;2023-07-08T04:37:20;3.57;;;3.13;;
13927;SDS011;7036;50.834;4.718;2023-07-08T04:39:47;3.20;;;2.90;;
13927;SDS011;7036;50.834;4.718;2023-07-08T04:42:14;4.20;;;2.83;;
13927;SDS011;7036;50.834;4.718;2023-07-08T04:44:41;3.57;;;2.80;;
13927;SDS011;7036;50.834;4.718;2023-07-08T04:47:08;2.70;;;2.47;;
13927;SDS011;7036;50.834;4.718;2023-07-08T04:49:35;3.27;;;2.97;;
13927;SDS011;7036;50.834;4.718;2023-07-08T04:52:02;3.37;;;3.07;;
13927;SDS011;7036;50.834;4.718;2023-07-08T04:54:29;3.07;;;2.77;;
13927;SDS011;7036;50.834;4.718;2023-07-08T04:56:56;2.73;;;2.53;;
13927;SDS011;7036;50.834;4.718;2023-07-08T04:59:23;3.30;;;2.80;;
13927;SDS011;7036;50.834;4.718;2023-07-08T05:01:50;3.37;;;3.07;;
13927;SDS011;7036;50.834;4.718;2023-07-08T05:04:17;3.00;;;2.70;;
13927;SDS011;7036;50.834;4.718;2023-07-08T05:06:43;3.50;;;2.70;;
13927;SDS011;7036;50.834;4.718;2023-07-08T05:09:10;2.70;;;2.50;;
13927;SDS011;7036;50.834;4.718;2023-07-08T05:11:37;2.83;;;2.53;;
13927;SDS011;7036;50.834;4.718;2023-07-08T05:14:05;3.87;;;2.73;;
13927;SDS011;7036;50.834;4.718;2023-07-08T05:16:33;3.07;;;2.83;;
13927;SDS011;7036;50.834;4.718;2023-07-08T05:18:59;3.37;;;2.70;;
13927;SDS011;7036;50.834;4.718;2023-07-08T05:21:26;4.83;;;3.20;;
13927;SDS011;7036;50.834;4.718;2023-07-08T05:23:53;3.47;;;3.10;;
13927;SDS011;7036;50.834;4.718;2023-07-08T05:26:19;3.20;;;2.60;;
13927;SDS011;7036;50.834;4.718;2023-07-08T05:28:46;3.10;;;2.67;;
13927;SDS011;7036;50.834;4.718;2023-07-08T05:31:13;4.23;;;2.90;;
13927;SDS011;7036;50.834;4.718;2023-07-08T05:33:40;2.77;;;2.57;;
13927;SDS011;7036;50.834;4.718;2023-07-08T05:36:07;4.37;;;3.10;;
13927;SDS011;7036;50.834;4.718;2023-07-08T05:38:34;3.03;;;2.80;;
13927;SDS011;7036;50.834;4.718;2023-07-08T05:41:01;2.53;;;2.33;;
13927;SDS011;7036;50.834;4.718;2023-07-08T05:43:28;3.20;;;2.90;;
13927;SDS011;7036;50.834;4.718;2023-07-08T05:45:58;3.57;;;2.80;;
13927;SDS011;7036;50.834;4.718;2023-07-08T05:48:24;3.37;;;3.07;;
13927;SDS011;7036;50.834;4.718;2023-07-08T05:50:51;3.37;;;2.53;;
13927;SDS011;7036;50.834;4.718;2023-07-08T05:53:18;3.03;;;2.70;;
13927;SDS011;7036;50.834;4.718;2023-07-08T05:55:45;3.30;;;2.77;;
13927;SDS011;7036;50.834;4.718;2023-07-08T05:58:12;3.40;;;3.10;;
13927;SDS011;7036;50.834;4.718;2023-07-08T06:00:39;3.50;;;3.20;;
13927;SDS011;7036;50.834;4.718;2023-07-08T06:03:06;3.03;;;2.70;;
13927;SDS011;7036;50.834;4.718;2023-07-08T06:05:33;3.20;;;2.80;;
13927;SDS011;7036;50.834;4.718;2023-07-08T06:07:59;2.83;;;2.60;;
13927;SDS011;7036;50.834;4.718;2023-07-08T06:10:26;3.40;;;2.90;;
13927;SDS011;7036;50.834;4.718;2023-07-08T06:12:53;2.70;;;2.50;;
13927;SDS011;7036;50.834;4.718;2023-07-08T06:15:20;2.97;;;2.67;;
13927;SDS011;7036;50.834;4.718;2023-07-08T06:17:47;3.10;;;2.77;;
13927;SDS011;7036;50.834;4.718;2023-07-08T06:20:14;3.40;;;3.07;;
13927;SDS011;7036;50.834;4.718;2023-07-08T06:22:41;3.67;;;3.07;;
13927;SDS011;7036;50.834;4.718;2023-07-08T06:25:08;3.00;;;2.70;;
13927;SDS011;7036;50.834;4.718;2023-07-08T06:27:35;4.50;;;2.90;;
13927;SDS011;7036;50.834;4.718;2023-07-08T06:30:02;2.70;;;2.50;;
13927;SDS011;7036;50.834;4.718;2023-07-08T06:32:29;2.50;;;2.27;;
13927;SDS011;7036;50.834;4.718;2023-07-08T06:34:56;3.33;;;3.00;;
13927;SDS011;7036;50.834;4.718;2023-07-08T06:37:23;3.20;;;2.90;;
13927;SDS011;7036;50.834;4.718;2023-07-08T06:39:50;3.43;;;2.90;;
13927;SDS011;7036;50.834;4.718;2023-07-08T06:42:17;4.97;;;2.80;;
13927;SDS011;7036;50.834;4.718;2023-07-08T06:44:44;3.43;;;2.83;;
13927;SDS011;7036;50.834;4.718;2023-07-08T06:47:11;2.80;;;2.53;;
13927;SDS011;7036;50.834;4.718;2023-07-08T06:49:38;3.03;;;2.50;;
13927;SDS011;7036;50.834;4.718;2023-07-08T06:52:05;3.10;;;2.60;;
13927;SDS011;7036;50.834;4.718;2023-07-08T06:54:32;2.60;;;2.40;;
13927;SDS011;7036;50.834;4.718;2023-07-08T06:56:59;2.90;;;2.70;;
13927;SDS011;7036;50.834;4.718;2023-07-08T06:59:26;2.77;;;2.57;;
13927;SDS011;7036;50.834;4.718;2023-07-08T07:01:53;3.27;;;2.50;;
13927;SDS011;7036;50.834;4.718;2023-07-08T07:04:20;2.93;;;2.53;;
13927;SDS011;7036;50.834;4.718;2023-07-08T07:06:47;2.97;;;2.73;;
13927;SDS011;7036;50.834;4.718;2023-07-08T07:09:15;2.47;;;2.20;;
13927;SDS011;7036;50.834;4.718;2023-07-08T07:11:41;2.83;;;2.63;;
13927;SDS011;7036;50.834;4.718;2023-07-08T07:14:08;3.07;;;2.67;;
13927;SDS011;7036;50.834;4.718;2023-07-08T07:16:36;2.70;;;2.50;;
13927;SDS011;7036;50.834;4.718;2023-07-08T07:19:03;3.20;;;2.80;;
13927;SDS011;7036;50.834;4.718;2023-07-08T07:21:31;3.07;;;2.77;;
13927;SDS011;7036;50.834;4.718;2023-07-08T07:23:57;3.30;;;2.50;;
13927;SDS011;7036;50.834;4.718;2023-07-08T07:26:24;2.93;;;2.50;;
13927;SDS011;7036;50.834;4.718;2023-07-08T07:28:51;3.30;;;2.63;;
13927;SDS011;7036;50.834;4.718;2023-07-08T07:31:18;2.93;;;2.57;;
13927;SDS011;7036;50.834;4.718;2023-07-08T07:33:45;2.90;;;2.70;;
13927;SDS011;7036;50.834;4.718;2023-07-08T07:36:12;3.10;;;2.43;;
13927;SDS011;7036;50.834;4.718;2023-07-08T07:38:39;2.83;;;2.63;;
13927;SDS011;7036;50.834;4.718;2023-07-08T07:41:06;3.93;;;2.67;;
13927;SDS011;7036;50.834;4.718;2023-07-08T07:43:33;4.63;;;2.73;;
13927;SDS011;7036;50.834;4.718;2023-07-08T07:46:00;3.93;;;2.50;;
13927;SDS011;7036;50.834;4.718;2023-07-08T07:48:27;2.97;;;2.67;;
13927;SDS011;7036;50.834;4.718;2023-07-08T07:50:55;3.33;;;3.03;;
13927;SDS011;7036;50.834;4.718;2023-07-08T07:53:21;3.73;;;3.10;;
13927;SDS011;7036;50.834;4.718;2023-07-08T07:55:55;3.80;;;2.93;;
13927;SDS011;7036;50.834;4.718;2023-07-08T07:58:17;4.27;;;3.13;;
13927;SDS011;7036;50.834;4.718;2023-07-08T08:00:43;3.27;;;2.97;;
13927;SDS011;7036;50.834;4.718;2023-07-08T08:03:10;3.23;;;2.80;;
13927;SDS011;7036;50.834;4.718;2023-07-08T08:05:37;4.20;;;3.23;;
13927;SDS011;7036;50.834;4.718;2023-07-08T08:08:04;3.70;;;3.40;;
13927;SDS011;7036;50.834;4.718;2023-07-08T08:10:31;3.27;;;2.97;;
13927;SDS011;7036;50.834;4.718;2023-07-08T08:12:58;3.73;;;3.23;;
13927;SDS011;7036;50.834;4.718;2023-07-08T08:15:25;3.23;;;2.93;;
13927;SDS011;7036;50.834;4.718;2023-07-08T08:17:52;3.67;;;3.33;;
13927;SDS011;7036;50.834;4.718;2023-07-08T08:20:19;4.10;;;3.70;;
13927;SDS011;7036;50.834;4.718;2023-07-08T08:22:46;3.80;;;3.33;;
13927;SDS011;7036;50.834;4.718;2023-07-08T08:25:14;3.97;;;3.57;;
13927;SDS011;7036;50.834;4.718;2023-07-08T08:27:43;4.73;;;3.80;;
13927;SDS011;7036;50.834;4.718;2023-07-08T08:30:10;7.20;;;3.80;;
13927;SDS011;7036;50.834;4.718;2023-07-08T08:32:37;5.57;;;3.40;;
13927;SDS011;7036;50.834;4.718;2023-07-08T08:35:04;4.43;;;3.60;;
13927;SDS011;7036;50.834;4.718;2023-07-08T08:37:31;7.97;;;4.80;;
13927;SDS011;7036;50.834;4.718;2023-07-08T08:39:58;6.33;;;3.53;;
13927;SDS011;7036;50.834;4.718;2023-07-08T08:42:30;6.13;;;4.20;;
13927;SDS011;7036;50.834;4.718;2023-07-08T08:44:54;7.57;;;4.63;;
13927;SDS011;7036;50.834;4.718;2023-07-08T08:47:25;4.80;;;4.33;;
13927;SDS011;7036;50.834;4.718;2023-07-08T08:50:16;4.90;;;4.40;;
13927;SDS011;7036;50.834;4.718;2023-07-08T08:52:31;5.50;;;5.07;;
13927;SDS011;7036;50.834;4.718;2023-07-08T08:54:58;6.33;;;4.90;;
13927;SDS011;7036;50.834;4.718;2023-07-08T08:57:45;5.23;;;4.73;;
13927;SDS011;7036;50.834;4.718;2023-07-08T09:00:10;5.47;;;4.53;;
13927;SDS011;7036;50.834;4.718;2023-07-08T09:05:28;7.73;;;5.43;;
13927;SDS011;7036;50.834;4.718;2023-07-08T09:13:11;6.83;;;4.57;;
13927;SDS011;7036;50.834;4.718;2023-07-08T09:15:35;6.23;;;4.50;;
13927;SDS011;7036;50.834;4.718;2023-07-08T09:18:10;7.73;;;5.20;;
13927;SDS011;7036;50.834;4.718;2023-07-08T09:20:38;6.67;;;5.03;;
13927;SDS011;7036;50.834;4.718;2023-07-08T09:23:15;6.43;;;5.70;;
13927;SDS011;7036;50.834;4.718;2023-07-08T09:25:46;6.37;;;5.10;;
13927;SDS011;7036;50.834;4.718;2023-07-08T09:28:34;5.53;;;4.70;;
13927;SDS011;7036;50.834;4.718;2023-07-08T09:30:50;5.53;;;4.80;;
13927;SDS011;7036;50.834;4.718;2023-07-08T09:33:16;8.07;;;5.30;;
13927;SDS011;7036;50.834;4.718;2023-07-08T09:35:45;6.00;;;4.97;;
13927;SDS011;7036;50.834;4.718;2023-07-08T09:38:13;5.60;;;4.53;;
13927;SDS011;7036;50.834;4.718;2023-07-08T09:40:37;8.57;;;4.77;;
13927;SDS011;7036;50.834;4.718;2023-07-08T09:43:18;6.33;;;5.53;;
13927;SDS011;7036;50.834;4.718;2023-07-08T09:45:44;7.03;;;4.87;;
13927;SDS011;7036;50.834;4.718;2023-07-08T09:48:19;7.90;;;6.03;;
13927;SDS011;7036;50.834;4.718;2023-07-08T09:50:42;5.67;;;5.03;;
13927;SDS011;7036;50.834;4.718;2023-07-08T09:53:11;6.70;;;5.37;;
13927;SDS011;7036;50.834;4.718;2023-07-08T09:55:35;9.63;;;5.50;;
13927;SDS011;7036;50.834;4.718;2023-07-08T09:58:02;6.10;;;5.50;;
13927;SDS011;7036;50.834;4.718;2023-07-08T10:00:33;6.90;;;5.47;;
13927;SDS011;7036;50.834;4.718;2023-07-08T10:03:01;6.60;;;5.03;;
13927;SDS011;7036;50.834;4.718;2023-07-08T10:05:35;7.03;;;5.10;;
13927;SDS011;7036;50.834;4.718;2023-07-08T10:07:56;8.37;;;5.37;;
13927;SDS011;7036;50.834;4.718;2023-07-08T10:10:26;7.57;;;5.40;;
13927;SDS011;7036;50.834;4.718;2023-07-08T10:12:57;11.33;;;6.43;;
13927;SDS011;7036;50.834;4.718;2023-07-08T10:17:58;8.13;;;5.93;;
13927;SDS011;7036;50.834;4.718;2023-07-08T10:20:26;8.67;;;6.47;;
13927;SDS011;7036;50.834;4.718;2023-07-08T10:23:12;6.97;;;6.03;;
13927;SDS011;7036;50.834;4.718;2023-07-08T10:25:43;7.60;;;5.90;;
13927;SDS011;7036;50.834;4.718;2023-07-08T10:28:14;9.13;;;6.07;;
13927;SDS011;7036;50.834;4.718;2023-07-08T10:30:45;7.40;;;5.67;;
13927;SDS011;7036;50.834;4.718;2023-07-08T10:33:28;7.40;;;6.37;;
13927;SDS011;7036;50.834;4.718;2023-07-08T10:41:12;8.20;;;6.57;;
13927;SDS011;7036;50.834;4.718;2023-07-08T10:46:31;9.20;;;5.63;;
13927;SDS011;7036;50.834;4.718;2023-07-08T10:48:56;7.17;;;5.97;;
13927;SDS011;7036;50.834;4.718;2023-07-08T10:51:47;7.73;;;5.80;;
13927;SDS011;7036;50.834;4.718;2023-07-08T11:02:31;12.00;;;6.90;;
13927;SDS011;7036;50.834;4.718;2023-07-08T11:05:17;7.43;;;6.40;;
13927;SDS011;7036;50.834;4.718;2023-07-08T11:08:11;7.63;;;5.53;;
13927;SDS011;7036;50.834;4.718;2023-07-08T11:13:23;7.73;;;6.30;;
13927;SDS011;7036;50.834;4.718;2023-07-08T11:15:53;7.37;;;6.47;;
13927;SDS011;7036;50.834;4.718;2023-07-08T11:18:21;7.30;;;5.93;;
13927;SDS011;7036;50.834;4.718;2023-07-08T11:26:04;7.13;;;5.83;;
13927;SDS011;7036;50.834;4.718;2023-07-08T11:28:37;8.20;;;6.00;;
13927;SDS011;7036;50.834;4.718;2023-07-08T11:31:04;6.47;;;5.70;;
13927;SDS011;7036;50.834;4.718;2023-07-08T11:33:31;9.47;;;6.50;;
13927;SDS011;7036;50.834;4.718;2023-07-08T11:35:58;7.70;;;5.87;;
13927;SDS011;7036;50.834;4.718;2023-07-08T11:38:25;9.37;;;6.20;;
13927;SDS011;7036;50.834;4.718;2023-07-08T11:41:00;7.07;;;5.80;;
13927;SDS011;7036;50.834;4.718;2023-07-08T11:43:27;6.40;;;5.60;;
13927;SDS011;7036;50.834;4.718;2023-07-08T11:45:54;7.77;;;5.97;;
13927;SDS011;7036;50.834;4.718;2023-07-08T11:48:25;7.47;;;6.03;;
13927;SDS011;7036;50.834;4.718;2023-07-08T11:50:49;7.47;;;5.87;;
13927;SDS011;7036;50.834;4.718;2023-07-08T11:55:58;6.27;;;5.60;;
13927;SDS011;7036;50.834;4.718;2023-07-08T11:58:25;7.87;;;5.97;;
13927;SDS011;7036;50.834;4.718;2023-07-08T12:00:56;7.87;;;6.10;;
13927;SDS011;7036;50.834;4.718;2023-07-08T12:03:19;7.57;;;6.07;;
13927;SDS011;7036;50.834;4.718;2023-07-08T12:05:45;7.67;;;6.20;;
13927;SDS011;7036;50.834;4.718;2023-07-08T12:08:13;6.47;;;5.73;;
13927;SDS011;7036;50.834;4.718;2023-07-08T12:10:40;10.77;;;6.40;;
13927;SDS011;7036;50.834;4.718;2023-07-08T12:13:15;9.37;;;6.60;;
13927;SDS011;7036;50.834;4.718;2023-07-08T12:15:35;8.33;;;6.20;;
13927;SDS011;7036;50.834;4.718;2023-07-08T12:18:09;8.27;;;5.60;;
13927;SDS011;7036;50.834;4.718;2023-07-08T12:20:31;7.47;;;6.07;;
13927;SDS011;7036;50.834;4.718;2023-07-08T12:22:56;8.63;;;6.03;;
13927;SDS011;7036;50.834;4.718;2023-07-08T12:25:25;9.23;;;6.57;;
13927;SDS011;7036;50.834;4.718;2023-07-08T12:27:50;8.63;;;5.63;;
13927;SDS011;7036;50.834;4.718;2023-07-08T12:30:17;8.03;;;6.13;;
13927;SDS011;7036;50.834;4.718;2023-07-08T12:32:44;6.80;;;5.83;;
13927;SDS011;7036;50.834;4.718;2023-07-08T12:35:29;8.00;;;6.50;;
13927;SDS011;7036;50.834;4.718;2023-07-08T12:37:50;6.03;;;5.10;;
13927;SDS011;7036;50.834;4.718;2023-07-08T12:40:16;6.60;;;5.83;;
13927;SDS011;7036;50.834;4.718;2023-07-08T12:42:44;6.43;;;5.13;;
13927;SDS011;7036;50.834;4.718;2023-07-08T12:45:20;6.33;;;5.43;;
13927;SDS011;7036;50.834;4.718;2023-07-08T12:47:44;7.87;;;5.33;;
13927;SDS011;7036;50.834;4.718;2023-07-08T12:50:11;6.80;;;5.63;;
13927;SDS011;7036;50.834;4.718;2023-07-08T12:52:38;8.23;;;5.40;;
13927;SDS011;7036;50.834;4.718;2023-07-08T12:55:05;6.57;;;5.23;;
13927;SDS011;7036;50.834;4.718;2023-07-08T12:57:31;12.10;;;5.80;;
13927;SDS011;7036;50.834;4.718;2023-07-08T12:59:58;8.03;;;5.07;;
13927;SDS011;7036;50.834;4.718;2023-07-08T13:02:25;6.80;;;5.27;;
13927;SDS011;7036;50.834;4.718;2023-07-08T13:04:55;8.80;;;5.57;;
13927;SDS011;7036;50.834;4.718;2023-07-08T13:07:29;6.03;;;5.23;;
13927;SDS011;7036;50.834;4.718;2023-07-08T13:09:48;5.90;;;5.30;;
13927;SDS011;7036;50.834;4.718;2023-07-08T13:12:16;7.33;;;4.60;;
13927;SDS011;7036;50.834;4.718;2023-07-08T13:14:42;6.73;;;4.97;;
13927;SDS011;7036;50.834;4.718;2023-07-08T13:17:12;6.83;;;5.13;;
13927;SDS011;7036;50.834;4.718;2023-07-08T13:19:38;6.50;;;5.00;;
13927;SDS011;7036;50.834;4.718;2023-07-08T13:22:05;7.37;;;5.00;;
13927;SDS011;7036;50.834;4.718;2023-07-08T13:24:32;7.80;;;4.40;;
13927;SDS011;7036;50.834;4.718;2023-07-08T13:26:59;7.63;;;5.00;;
13927;SDS011;7036;50.834;4.718;2023-07-08T13:29:26;5.30;;;4.80;;
13927;SDS011;7036;50.834;4.718;2023-07-08T13:32:01;5.70;;;4.73;;
13927;SDS011;7036;50.834;4.718;2023-07-08T13:34:20;6.27;;;4.53;;
13927;SDS011;7036;50.834;4.718;2023-07-08T13:36:49;7.47;;;5.17;;
13927;SDS011;7036;50.834;4.718;2023-07-08T13:39:15;5.13;;;4.60;;
13927;SDS011;7036;50.834;4.718;2023-07-08T13:41:44;7.87;;;5.87;;
13927;SDS011;7036;50.834;4.718;2023-07-08T13:44:11;5.30;;;4.07;;
13927;SDS011;7036;50.834;4.718;2023-07-08T13:46:39;5.67;;;3.73;;
13927;SDS011;7036;50.834;4.718;2023-07-08T13:49:12;5.80;;;4.40;;
13927;SDS011;7036;50.834;4.718;2023-07-08T13:51:37;6.10;;;4.17;;
13927;SDS011;7036;50.834;4.718;2023-07-08T13:54:12;5.97;;;4.17;;
13927;SDS011;7036;50.834;4.718;2023-07-08T13:56:39;5.37;;;3.97;;
13927;SDS011;7036;50.834;4.718;2023-07-08T13:59:17;6.43;;;3.87;;
13927;SDS011;7036;50.834;4.718;2023-07-08T14:01:40;4.37;;;3.97;;
13927;SDS011;7036;50.834;4.718;2023-07-08T14:04:06;5.10;;;3.67;;
13927;SDS011;7036;50.834;4.718;2023-07-08T14:06:34;4.03;;;3.60;;
13927;SDS011;7036;50.834;4.718;2023-07-08T14:09:05;4.97;;;4.23;;
13927;SDS011;7036;50.834;4.718;2023-07-08T14:11:26;4.83;;;4.00;;
13927;SDS011;7036;50.834;4.718;2023-07-08T14:13:53;5.87;;;4.63;;
13927;SDS011;7036;50.834;4.718;2023-07-08T14:16:24;4.67;;;4.17;;
13927;SDS011;7036;50.834;4.718;2023-07-08T14:18:51;5.93;;;4.83;;
13927;SDS011;7036;50.834;4.718;2023-07-08T14:21:18;4.60;;;4.10;;
13927;SDS011;7036;50.834;4.718;2023-07-08T14:23:44;4.73;;;4.17;;
13927;SDS011;7036;50.834;4.718;2023-07-08T14:26:12;7.40;;;3.80;;
13927;SDS011;7036;50.834;4.718;2023-07-08T14:28:38;5.97;;;4.27;;
13927;SDS011;7036;50.834;4.718;2023-07-08T14:31:12;6.80;;;4.33;;
13927;SDS011;7036;50.834;4.718;2023-07-08T14:33:38;6.47;;;4.20;;
13927;SDS011;7036;50.834;4.718;2023-07-08T14:36:09;5.43;;;3.97;;
13927;SDS011;7036;50.834;4.718;2023-07-08T14:38:35;6.23;;;4.47;;
13927;SDS011;7036;50.834;4.718;2023-07-08T14:41:02;5.20;;;4.07;;
13927;SDS011;7036;50.834;4.718;2023-07-08T14:43:29;7.40;;;4.10;;
13927;SDS011;7036;50.834;4.718;2023-07-08T14:45:56;6.90;;;4.30;;
13927;SDS011;7036;50.834;4.718;2023-07-08T14:48:23;6.03;;;3.70;;
13927;SDS011;7036;50.834;4.718;2023-07-08T14:50:49;9.30;;;4.70;;
13927;SDS011;7036;50.834;4.718;2023-07-08T14:53:17;6.40;;;4.10;;
13927;SDS011;7036;50.834;4.718;2023-07-08T14:55:44;7.27;;;4.13;;
13927;SDS011;7036;50.834;4.718;2023-07-08T14:58:15;9.37;;;4.33;;
13927;SDS011;7036;50.834;4.718;2023-07-08T15:00:37;7.73;;;4.27;;
13927;SDS011;7036;50.834;4.718;2023-07-08T15:03:04;6.50;;;3.70;;
13927;SDS011;7036;50.834;4.718;2023-07-08T15:05:31;3.87;;;3.40;;
13927;SDS011;7036;50.834;4.718;2023-07-08T15:07:58;7.07;;;4.13;;
13927;SDS011;7036;50.834;4.718;2023-07-08T15:10:26;5.83;;;3.63;;
13927;SDS011;7036;50.834;4.718;2023-07-08T15:12:52;8.77;;;3.97;;
13927;SDS011;7036;50.834;4.718;2023-07-08T15:15:32;5.03;;;4.20;;
13927;SDS011;7036;50.834;4.718;2023-07-08T15:17:58;7.93;;;3.80;;
13927;SDS011;7036;50.834;4.718;2023-07-08T15:20:26;7.87;;;4.47;;
13927;SDS011;7036;50.834;4.718;2023-07-08T15:22:52;8.23;;;4.20;;
13927;SDS011;7036;50.834;4.718;2023-07-08T15:25:19;5.47;;;3.87;;
13927;SDS011;7036;50.834;4.718;2023-07-08T15:27:47;4.60;;;3.80;;
13927;SDS011;7036;50.834;4.718;2023-07-08T15:30:20;4.97;;;4.43;;
13927;SDS011;7036;50.834;4.718;2023-07-08T15:32:45;5.73;;;3.63;;
13927;SDS011;7036;50.834;4.718;2023-07-08T15:35:12;4.23;;;3.57;;
13927;SDS011;7036;50.834;4.718;2023-07-08T15:37:38;5.33;;;3.10;;
13927;SDS011;7036;50.834;4.718;2023-07-08T15:40:05;4.43;;;3.70;;
13927;SDS011;7036;50.834;4.718;2023-07-08T15:42:32;8.10;;;3.87;;
13927;SDS011;7036;50.834;4.718;2023-07-08T15:44:59;6.10;;;3.60;;